Terminal Aerodrome Forecast
Issued by NWS North Platte, NE

Home | Current Version | Previous Version | Graphics & Text | Print | Product List | Glossary On
Versions: 1 2 3 4 5 6 7 8 9 10 11 12 13 14 15 16 17 18 19 20
000
FTUS43 KLBF 300933 AAB
TAFVTN
TAF AMD
KVTN 300933Z 3010/3106 20015KT P6SM SCT250
     FM301400 21013KT P6SM SCT250
     FM301700 20015G22KT P6SM SCT250
     FM301900 19021G32KT P6SM SCT250
     FM310100 18017G25KT P6SM SCT250=

USA.gov is the U.S. government's official web portal to all federal, state and local government web resources and services.